Time;durP1;ratioP1;P1;durP2;ratioP2;P2;SDS_P1;SDS_P2;PMS_P1;PMS_P2;Temp;Humidity;BMP_temperature;BMP_pressure;BME280_temperature;BME280_humidity;BME280_pressure;Samples;Min_cycle;Max_cycle;Signal;HPM_P1;HPM_P2
2021/08/31 00:00:45;;;;;;;4.17;3.77;;;;;;;;;;5108630;28;20206;-65
2021/08/31 00:03:13;;;;;;;5.70;4.10;;;;;;;;;;5100238;28;20247;-64
2021/08/31 00:05:41;;;;;;;6.37;3.93;;;;;;;;;;5116257;28;20304;-65
2021/08/31 00:08:09;;;;;;;5.07;3.80;;;;;;;;;;5100881;28;20288;-65
2021/08/31 00:10:37;;;;;;;4.70;4.17;;;;;;;;;;5116423;28;20227;-65
2021/08/31 00:13:05;;;;;;;3.90;3.60;;;;;;;;;;5118291;28;20644;-64
2021/08/31 00:15:35;;;;;;;5.47;3.80;;;;;;;;;;5120504;28;20235;-64
2021/08/31 00:18:03;;;;;;;5.47;4.13;;;;;;;;;;5118918;28;20211;-64
2021/08/31 00:20:31;;;;;;;4.70;3.70;;;;;;;;;;5105831;28;20201;-65
2021/08/31 00:22:59;;;;;;;5.73;4.13;;;;;;;;;;5099986;28;20209;-65
2021/08/31 00:25:27;;;;;;;4.43;4.00;;;;;;;;;;5103467;28;20225;-64
2021/08/31 00:27:55;;;;;;;5.13;4.50;;;;;;;;;;5098251;28;20334;-64
2021/08/31 00:30:23;;;;;;;5.27;3.87;;;;;;;;;;5103384;28;20568;-65
2021/08/31 00:32:52;;;;;;;4.60;4.10;;;;;;;;;;5120022;28;20687;-65
2021/08/31 00:35:20;;;;;;;4.53;4.10;;;;;;;;;;5118682;28;20228;-65
2021/08/31 00:37:49;;;;;;;4.80;4.20;;;;;;;;;;5119826;28;20755;-65
2021/08/31 00:40:17;;;;;;;4.73;4.20;;;;;;;;;;5118757;28;20254;-65
2021/08/31 00:42:45;;;;;;;4.90;3.70;;;;;;;;;;5117962;28;20204;-65
2021/08/31 00:45:13;;;;;;;4.50;3.87;;;;;;;;;;5117212;28;20244;-64
2021/08/31 00:47:41;;;;;;;4.90;3.87;;;;;;;;;;5105458;28;20212;-65
2021/08/31 00:50:11;;;;;;;4.93;3.93;;;;;;;;;;5100733;28;20229;-64
2021/08/31 00:52:40;;;;;;;5.27;4.40;;;;;;;;;;5105657;28;20205;-64
2021/08/31 00:55:08;;;;;;;6.03;4.20;;;;;;;;;;5109765;28;20304;-65
2021/08/31 00:57:36;;;;;;;5.20;4.10;;;;;;;;;;5116430;28;20196;-65
2021/08/31 01:00:07;;;;;;;4.90;4.23;;;;;;;;;;5115637;28;20197;-64
2021/08/31 01:02:35;;;;;;;5.20;4.40;;;;;;;;;;5099064;28;20665;-65
2021/08/31 01:05:03;;;;;;;5.50;4.57;;;;;;;;;;5099972;28;20253;-64
2021/08/31 01:07:32;;;;;;;5.40;4.07;;;;;;;;;;5119210;28;20237;-64
2021/08/31 01:10:01;;;;;;;8.43;4.93;;;;;;;;;;5118374;28;20209;-65
2021/08/31 01:12:29;;;;;;;4.30;3.83;;;;;;;;;;5117859;28;20201;-65
2021/08/31 01:14:57;;;;;;;5.17;4.47;;;;;;;;;;5116635;28;20235;-64
2021/08/31 01:17:26;;;;;;;6.17;4.43;;;;;;;;;;5114185;27;20253;-65
2021/08/31 01:19:54;;;;;;;5.50;4.67;;;;;;;;;;5100727;28;20743;-65
2021/08/31 01:22:22;;;;;;;6.17;4.90;;;;;;;;;;5111181;28;20209;-65
2021/08/31 01:24:55;;;;;;;5.53;4.90;;;;;;;;;;5106320;28;20321;-64
2021/08/31 01:27:23;;;;;;;6.67;4.90;;;;;;;;;;5097456;28;20285;-64
2021/08/31 01:29:51;;;;;;;5.30;4.43;;;;;;;;;;5097106;28;20224;-64
2021/08/31 01:32:19;;;;;;;5.17;4.63;;;;;;;;;;5113022;28;20563;-65
2021/08/31 01:34:47;;;;;;;5.63;5.03;;;;;;;;;;5118588;28;20235;-65
2021/08/31 01:37:15;;;;;;;5.93;4.77;;;;;;;;;;5117544;28;20249;-64
2021/08/31 01:39:43;;;;;;;4.97;4.43;;;;;;;;;;5117925;28;20217;-65
2021/08/31 01:42:12;;;;;;;5.90;5.00;;;;;;;;;;5116030;28;20656;-65
2021/08/31 01:44:40;;;;;;;5.70;4.47;;;;;;;;;;5118799;28;20225;-64
2021/08/31 01:47:10;;;;;;;6.90;4.97;;;;;;;;;;5107402;28;20219;-65
2021/08/31 01:49:38;;;;;;;5.93;4.77;;;;;;;;;;5099688;28;20198;-65
2021/08/31 01:52:06;;;;;;;5.30;4.57;;;;;;;;;;5097985;28;20575;-65
2021/08/31 01:54:34;;;;;;;4.67;4.20;;;;;;;;;;5106287;28;20647;-65
2021/08/31 01:57:02;;;;;;;6.17;4.47;;;;;;;;;;5118511;28;20225;-65
2021/08/31 01:59:32;;;;;;;6.23;4.63;;;;;;;;;;5107234;28;20206;-64
2021/08/31 02:02:00;;;;;;;5.50;4.70;;;;;;;;;;5113341;28;20284;-64
2021/08/31 02:04:32;;;;;;;5.63;4.30;;;;;;;;;;5117532;28;20244;-64
2021/08/31 02:07:00;;;;;;;5.20;4.60;;;;;;;;;;5117422;28;20284;-64
2021/08/31 02:09:28;;;;;;;6.03;4.73;;;;;;;;;;5117003;28;20291;-64
2021/08/31 02:11:56;;;;;;;5.90;4.90;;;;;;;;;;5117030;28;20205;-64
2021/08/31 02:14:24;;;;;;;5.97;4.77;;;;;;;;;;5103027;28;20232;-64
2021/08/31 02:16:53;;;;;;;6.27;4.50;;;;;;;;;;5097866;28;20235;-64
2021/08/31 02:19:21;;;;;;;5.20;4.70;;;;;;;;;;5113035;28;20220;-64
2021/08/31 02:21:49;;;;;;;5.13;4.53;;;;;;;;;;5118148;28;20296;-64
2021/08/31 02:24:17;;;;;;;7.03;4.60;;;;;;;;;;5117152;28;20221;-64
2021/08/31 02:26:45;;;;;;;4.87;4.30;;;;;;;;;;5103168;28;20212;-64
2021/08/31 02:29:13;;;;;;;5.20;4.40;;;;;;;;;;5096204;28;20556;-64
2021/08/31 02:31:41;;;;;;;6.50;4.80;;;;;;;;;;5096507;28;20518;-65
2021/08/31 02:34:10;;;;;;;4.97;4.47;;;;;;;;;;5099179;28;20280;-64
2021/08/31 02:36:38;;;;;;;5.03;4.33;;;;;;;;;;5097732;28;20221;-65
2021/08/31 02:39:06;;;;;;;6.30;4.60;;;;;;;;;;5102176;28;20201;-64
2021/08/31 02:41:34;;;;;;;6.30;4.07;;;;;;;;;;5118313;28;20215;-64
2021/08/31 02:44:02;;;;;;;5.07;4.47;;;;;;;;;;5096251;28;20217;-64
2021/08/31 02:46:30;;;;;;;5.67;4.10;;;;;;;;;;5103960;28;20225;-65
2021/08/31 02:48:58;;;;;;;5.83;4.77;;;;;;;;;;5112758;28;20344;-64
2021/08/31 02:51:27;;;;;;;7.13;4.57;;;;;;;;;;5107418;28;20250;-64
2021/08/31 02:53:55;;;;;;;6.57;4.73;;;;;;;;;;5097317;28;20213;-64
2021/08/31 02:56:23;;;;;;;5.50;4.90;;;;;;;;;;5097466;28;20225;-65
2021/08/31 02:58:51;;;;;;;6.03;4.73;;;;;;;;;;5096186;28;20668;-65
2021/08/31 03:01:37;;;;;;;5.83;4.53;;;;;;;;;;5100599;28;20216;-65
2021/08/31 03:04:07;;;;;;;7.30;5.23;;;;;;;;;;5097323;28;20283;-64
2021/08/31 03:06:36;;;;;;;8.43;4.83;;;;;;;;;;5097528;28;20202;-65
2021/08/31 03:09:04;;;;;;;5.93;4.10;;;;;;;;;;5117049;28;20210;-64
2021/08/31 03:11:33;;;;;;;6.23;4.73;;;;;;;;;;5117755;28;20212;-64
2021/08/31 03:14:01;;;;;;;5.83;4.47;;;;;;;;;;5111055;28;20224;-64
2021/08/31 03:16:29;;;;;;;4.60;4.07;;;;;;;;;;5097154;28;20228;-64
2021/08/31 03:18:57;;;;;;;6.20;5.00;;;;;;;;;;5102713;28;20733;-64
2021/08/31 03:21:25;;;;;;;6.50;4.27;;;;;;;;;;5121491;28;20584;-64
2021/08/31 03:23:54;;;;;;;5.53;4.80;;;;;;;;;;5120198;28;20229;-64
2021/08/31 03:26:22;;;;;;;4.87;4.23;;;;;;;;;;5101197;28;20214;-64
2021/08/31 03:28:50;;;;;;;6.13;4.90;;;;;;;;;;5116999;28;20205;-65
2021/08/31 03:31:18;;;;;;;6.03;4.53;;;;;;;;;;5108466;28;20612;-65
2021/08/31 03:33:46;;;;;;;5.90;4.30;;;;;;;;;;5102559;28;20228;-64
2021/08/31 03:36:14;;;;;;;5.43;4.73;;;;;;;;;;5121354;27;20210;-65
2021/08/31 03:38:42;;;;;;;5.90;5.03;;;;;;;;;;5117852;28;20235;-64
2021/08/31 03:41:11;;;;;;;6.03;4.63;;;;;;;;;;5104706;28;20203;-64
2021/08/31 03:43:40;;;;;;;6.33;4.60;;;;;;;;;;5109723;28;20202;-65
2021/08/31 03:46:08;;;;;;;5.40;4.87;;;;;;;;;;5103118;28;20201;-64
2021/08/31 03:48:36;;;;;;;5.90;5.00;;;;;;;;;;5117654;28;20636;-64
2021/08/31 03:51:04;;;;;;;8.67;6.00;;;;;;;;;;5107970;28;20598;-64
2021/08/31 03:53:32;;;;;;;6.13;5.13;;;;;;;;;;5100419;28;20202;-64
2021/08/31 03:56:00;;;;;;;6.57;4.73;;;;;;;;;;5106339;28;20277;-64
2021/08/31 03:58:29;;;;;;;6.60;5.10;;;;;;;;;;5107192;28;20230;-64
2021/08/31 04:00:57;;;;;;;8.47;5.53;;;;;;;;;;5097342;28;20194;-64
2021/08/31 04:03:26;;;;;;;7.50;5.10;;;;;;;;;;5104572;28;20202;-64
2021/08/31 04:05:54;;;;;;;8.10;5.20;;;;;;;;;;5108586;28;20276;-64
2021/08/31 04:08:21;;;;;;;7.47;5.23;;;;;;;;;;5107226;28;20211;-64
2021/08/31 04:10:49;;;;;;;7.20;5.30;;;;;;;;;;5106547;28;20213;-64
2021/08/31 04:13:18;;;;;;;7.43;5.33;;;;;;;;;;5106319;28;20201;-64
2021/08/31 04:15:48;;;;;;;8.77;6.03;;;;;;;;;;5106973;28;20586;-64
2021/08/31 04:18:16;;;;;;;6.27;4.90;;;;;;;;;;5105966;28;20228;-64
2021/08/31 04:20:44;;;;;;;16.10;10.97;;;;;;;;;;5099470;28;20197;-64
2021/08/31 04:23:12;;;;;;;7.53;5.67;;;;;;;;;;5098461;28;20206;-64
2021/08/31 04:25:40;;;;;;;7.67;5.30;;;;;;;;;;5106245;28;20223;-64
2021/08/31 04:28:08;;;;;;;8.30;6.10;;;;;;;;;;5107362;28;20202;-64
2021/08/31 04:30:36;;;;;;;8.73;6.27;;;;;;;;;;5101902;28;20204;-64
2021/08/31 04:33:05;;;;;;;6.43;5.73;;;;;;;;;;5106876;28;20199;-64
2021/08/31 04:35:34;;;;;;;8.07;6.33;;;;;;;;;;5108580;28;20308;-64
2021/08/31 04:38:02;;;;;;;9.30;6.30;;;;;;;;;;5108207;28;20301;-64
2021/08/31 04:40:30;;;;;;;8.10;5.80;;;;;;;;;;5108210;28;20203;-64
2021/08/31 04:42:57;;;;;;;7.37;5.90;;;;;;;;;;5105231;28;20644;-65
2021/08/31 04:45:25;;;;;;;8.33;6.43;;;;;;;;;;5106976;28;20224;-64
2021/08/31 04:47:53;;;;;;;8.53;6.03;;;;;;;;;;5096952;28;20202;-64
2021/08/31 04:50:23;;;;;;;8.57;6.40;;;;;;;;;;5107732;28;20573;-64
2021/08/31 04:52:51;;;;;;;7.47;6.27;;;;;;;;;;5101714;28;20728;-64
2021/08/31 04:55:20;;;;;;;8.17;6.57;;;;;;;;;;5105063;28;20281;-65
2021/08/31 04:57:48;;;;;;;8.50;6.53;;;;;;;;;;5113931;28;20235;-65
2021/08/31 05:00:17;;;;;;;9.03;6.50;;;;;;;;;;5105011;28;20219;-65
2021/08/31 05:02:45;;;;;;;10.47;7.73;;;;;;;;;;5104990;28;20617;-65
2021/08/31 05:05:13;;;;;;;7.37;5.97;;;;;;;;;;5111141;28;21198;-64
2021/08/31 05:07:43;;;;;;;9.13;7.33;;;;;;;;;;5109361;28;20284;-65
2021/08/31 05:10:11;;;;;;;9.77;6.83;;;;;;;;;;5106366;28;20207;-65
2021/08/31 05:12:39;;;;;;;8.40;7.13;;;;;;;;;;5104687;28;20652;-64
2021/08/31 05:15:08;;;;;;;10.57;7.20;;;;;;;;;;5106451;28;20221;-64
2021/08/31 05:17:36;;;;;;;12.03;7.27;;;;;;;;;;5103726;28;20343;-65
2021/08/31 05:20:05;;;;;;;12.47;7.30;;;;;;;;;;5105121;28;20198;-65
2021/08/31 05:22:33;;;;;;;9.40;6.73;;;;;;;;;;5110320;28;20215;-65
2021/08/31 05:25:03;;;;;;;11.13;7.47;;;;;;;;;;5109950;28;20269;-65
2021/08/31 05:27:31;;;;;;;9.07;7.43;;;;;;;;;;5103515;28;20197;-67
2021/08/31 05:30:00;;;;;;;10.70;7.63;;;;;;;;;;5102786;28;20233;-63
2021/08/31 05:32:28;;;;;;;9.13;7.30;;;;;;;;;;5096619;28;20197;-64
2021/08/31 05:34:56;;;;;;;10.17;7.93;;;;;;;;;;5109492;28;20221;-64
2021/08/31 05:37:24;;;;;;;10.90;7.80;;;;;;;;;;5101114;28;20212;-64
2021/08/31 05:39:52;;;;;;;9.50;6.97;;;;;;;;;;5105686;28;20698;-64
2021/08/31 05:42:21;;;;;;;12.27;8.50;;;;;;;;;;5105144;28;20198;-65
2021/08/31 05:44:50;;;;;;;14.07;7.93;;;;;;;;;;5103016;28;20224;-64
2021/08/31 05:47:18;;;;;;;10.97;8.23;;;;;;;;;;5100441;28;20203;-65
2021/08/31 05:49:46;;;;;;;10.43;7.43;;;;;;;;;;5105460;28;20208;-66
2021/08/31 05:52:14;;;;;;;10.73;7.77;;;;;;;;;;5103553;28;20199;-65
2021/08/31 05:54:42;;;;;;;12.10;7.70;;;;;;;;;;5103385;28;20213;-65
2021/08/31 05:57:11;;;;;;;12.60;8.10;;;;;;;;;;5104456;28;20709;-69
2021/08/31 05:59:40;;;;;;;9.47;7.17;;;;;;;;;;5107942;28;20227;-68
2021/08/31 06:02:09;;;;;;;9.97;7.73;;;;;;;;;;5103994;28;20209;-68
2021/08/31 06:04:38;;;;;;;11.33;7.20;;;;;;;;;;5108543;28;20221;-67
2021/08/31 06:07:06;;;;;;;11.73;7.67;;;;;;;;;;5108840;28;20215;-68
2021/08/31 06:09:36;;;;;;;13.10;8.53;;;;;;;;;;5104546;28;20724;-66
2021/08/31 06:12:06;;;;;;;9.10;6.90;;;;;;;;;;5101868;28;20201;-67
2021/08/31 06:14:34;;;;;;;11.13;7.60;;;;;;;;;;5103019;28;20307;-66
2021/08/31 06:17:05;;;;;;;8.93;7.10;;;;;;;;;;5103231;28;20205;-65
2021/08/31 06:19:34;;;;;;;10.60;7.10;;;;;;;;;;5102032;28;20251;-67
2021/08/31 06:22:02;;;;;;;10.63;7.27;;;;;;;;;;5101639;28;20205;-68
2021/08/31 06:24:31;;;;;;;10.97;7.13;;;;;;;;;;5101612;28;20224;-66
2021/08/31 06:27:01;;;;;;;11.70;7.53;;;;;;;;;;5099081;28;20201;-69
2021/08/31 06:29:29;;;;;;;10.27;7.23;;;;;;;;;;5099883;28;20201;-67
2021/08/31 06:31:58;;;;;;;8.33;7.07;;;;;;;;;;5100089;28;20569;-67
2021/08/31 06:34:27;;;;;;;8.37;6.77;;;;;;;;;;5109439;28;20256;-66
2021/08/31 06:36:57;;;;;;;10.03;7.20;;;;;;;;;;5096832;28;20679;-67
2021/08/31 06:39:26;;;;;;;10.67;7.83;;;;;;;;;;5096426;28;20229;-68
2021/08/31 06:41:54;;;;;;;10.07;6.80;;;;;;;;;;5096690;28;20700;-68
2021/08/31 06:44:23;;;;;;;10.07;7.10;;;;;;;;;;5096851;28;21507;-67
2021/08/31 06:46:51;;;;;;;8.27;6.73;;;;;;;;;;5097294;28;20241;-67
2021/08/31 06:49:22;;;;;;;10.67;7.13;;;;;;;;;;5098836;28;20232;-68
2021/08/31 06:51:52;;;;;;;9.97;7.20;;;;;;;;;;5109605;28;20600;-68
2021/08/31 06:54:20;;;;;;;9.67;6.80;;;;;;;;;;5113776;28;20308;-67
2021/08/31 06:56:48;;;;;;;9.47;6.47;;;;;;;;;;5113145;28;20212;-68
2021/08/31 06:59:16;;;;;;;9.83;7.23;;;;;;;;;;5112221;27;20587;-68
2021/08/31 07:01:44;;;;;;;8.67;6.50;;;;;;;;;;5111407;28;20213;-67
2021/08/31 07:04:13;;;;;;;9.13;7.90;;;;;;;;;;5110210;28;20723;-67
2021/08/31 07:06:41;;;;;;;10.37;7.23;;;;;;;;;;5109237;28;20209;-67
2021/08/31 07:09:10;;;;;;;9.07;6.70;;;;;;;;;;5107739;28;20665;-69
2021/08/31 07:11:38;;;;;;;11.43;7.40;;;;;;;;;;5107344;28;20202;-67
2021/08/31 07:14:07;;;;;;;10.57;7.13;;;;;;;;;;5104331;27;20599;-68
2021/08/31 07:16:35;;;;;;;10.03;7.33;;;;;;;;;;5106620;28;20206;-68
2021/08/31 07:19:04;;;;;;;10.93;7.87;;;;;;;;;;5103459;28;20685;-68
2021/08/31 07:21:32;;;;;;;9.33;7.53;;;;;;;;;;5104371;28;20201;-67
2021/08/31 07:24:00;;;;;;;10.73;7.20;;;;;;;;;;5102530;28;20630;-67
2021/08/31 07:26:30;;;;;;;9.30;7.17;;;;;;;;;;5100153;28;20214;-68
2021/08/31 07:28:58;;;;;;;9.80;6.90;;;;;;;;;;5100461;28;20263;-67
2021/08/31 07:31:26;;;;;;;12.10;7.23;;;;;;;;;;5100270;28;20285;-67
2021/08/31 07:33:55;;;;;;;8.17;6.53;;;;;;;;;;5100535;28;20226;-67
2021/08/31 07:36:23;;;;;;;8.80;7.17;;;;;;;;;;5100179;28;20235;-67
2021/08/31 07:38:53;;;;;;;8.97;6.77;;;;;;;;;;5100012;28;20252;-68
2021/08/31 07:41:21;;;;;;;10.50;6.60;;;;;;;;;;5110410;28;20220;-67
2021/08/31 07:43:51;;;;;;;7.67;6.33;;;;;;;;;;5111129;28;20278;-68
2021/08/31 07:46:20;;;;;;;9.03;6.60;;;;;;;;;;5109851;28;20208;-67
2021/08/31 07:48:48;;;;;;;8.30;7.30;;;;;;;;;;5106377;28;20212;-69
2021/08/31 07:51:16;;;;;;;12.93;6.63;;;;;;;;;;5108551;28;20259;-69
2021/08/31 07:53:45;;;;;;;10.10;7.30;;;;;;;;;;5113846;28;20226;-67
2021/08/31 07:56:16;;;;;;;9.53;6.50;;;;;;;;;;5115520;28;20258;-67
2021/08/31 07:58:44;;;;;;;9.47;6.90;;;;;;;;;;5111844;28;20243;-68
2021/08/31 08:01:14;;;;;;;7.83;6.33;;;;;;;;;;5105712;28;20231;-68
2021/08/31 08:03:42;;;;;;;9.53;6.83;;;;;;;;;;5106365;28;20204;-66
2021/08/31 08:06:10;;;;;;;9.47;6.80;;;;;;;;;;5106738;28;20202;-68
2021/08/31 08:08:39;;;;;;;8.20;6.13;;;;;;;;;;5112924;28;20208;-67
2021/08/31 08:11:07;;;;;;;7.07;6.13;;;;;;;;;;5116269;27;20298;-69
2021/08/31 08:13:35;;;;;;;9.13;6.03;;;;;;;;;;5111823;28;20210;-68
2021/08/31 08:16:04;;;;;;;10.57;6.20;;;;;;;;;;5113899;27;20650;-67
2021/08/31 08:18:34;;;;;;;8.47;6.27;;;;;;;;;;5107713;28;20257;-66
2021/08/31 08:21:02;;;;;;;7.10;6.20;;;;;;;;;;5101322;28;20241;-68
2021/08/31 08:23:30;;;;;;;8.20;6.80;;;;;;;;;;5114653;28;20577;-67
2021/08/31 08:26:06;;;;;;;8.47;6.17;;;;;;;;;;5108535;28;20212;-66
2021/08/31 08:28:35;;;;;;;7.13;5.80;;;;;;;;;;5113001;28;20205;-66
2021/08/31 08:31:03;;;;;;;7.70;6.17;;;;;;;;;;5115245;28;20204;-68
2021/08/31 08:33:33;;;;;;;9.67;6.40;;;;;;;;;;5110463;28;20206;-67
2021/08/31 08:36:01;;;;;;;8.40;6.07;;;;;;;;;;5114445;28;20209;-66
2021/08/31 08:38:30;;;;;;;7.00;6.10;;;;;;;;;;5110396;28;20206;-67
2021/08/31 08:40:58;;;;;;;10.33;5.90;;;;;;;;;;5115164;28;20286;-68
2021/08/31 08:43:26;;;;;;;8.17;6.27;;;;;;;;;;5109733;28;20208;-67
2021/08/31 08:45:55;;;;;;;9.33;6.87;;;;;;;;;;5112959;28;20267;-66
2021/08/31 08:48:25;;;;;;;6.67;5.93;;;;;;;;;;5104085;28;20201;-66
2021/08/31 08:51:00;;;;;;;8.27;6.10;;;;;;;;;;5106547;28;20239;-67
2021/08/31 08:53:29;;;;;;;7.67;5.93;;;;;;;;;;5107126;28;20202;-67
2021/08/31 08:56:00;;;;;;;8.50;6.93;;;;;;;;;;5108906;28;20204;-68
2021/08/31 08:58:28;;;;;;;11.60;6.50;;;;;;;;;;5105479;28;20555;-69
2021/08/31 09:01:00;;;;;;;6.63;5.50;;;;;;;;;;5106372;28;20221;-68
2021/08/31 09:03:30;;;;;;;7.47;5.93;;;;;;;;;;5103937;28;20546;-69
2021/08/31 09:06:07;;;;;;;7.23;6.00;;;;;;;;;;5101846;28;20205;-67
2021/08/31 09:08:36;;;;;;;10.30;6.40;;;;;;;;;;5113633;28;20264;-67
2021/08/31 09:11:17;;;;;;;8.67;6.00;;;;;;;;;;5117539;28;20212;-67
2021/08/31 09:13:45;;;;;;;7.67;6.27;;;;;;;;;;5116763;28;20261;-69
2021/08/31 09:16:30;;;;;;;6.73;5.87;;;;;;;;;;5116449;28;20230;-67
2021/08/31 09:18:58;;;;;;;6.83;5.73;;;;;;;;;;5114762;28;20702;-68
2021/08/31 09:21:29;;;;;;;6.83;5.53;;;;;;;;;;5104009;28;20711;-68
2021/08/31 09:23:57;;;;;;;6.03;5.30;;;;;;;;;;5106592;28;20247;-68
2021/08/31 09:26:33;;;;;;;6.80;5.20;;;;;;;;;;5110126;28;20205;-68
2021/08/31 09:29:15;;;;;;;6.97;5.20;;;;;;;;;;5103676;28;20193;-68
2021/08/31 09:31:48;;;;;;;6.30;5.27;;;;;;;;;;5105611;28;20236;-68
2021/08/31 09:34:39;;;;;;;8.37;5.77;;;;;;;;;;5110200;28;20759;-69
2021/08/31 09:37:27;;;;;;;6.53;5.47;;;;;;;;;;5111179;28;20210;-66
2021/08/31 09:40:06;;;;;;;6.20;5.00;;;;;;;;;;5103554;28;20230;-71
2021/08/31 09:42:34;;;;;;;6.33;4.93;;;;;;;;;;5097433;28;20209;-68
2021/08/31 09:45:03;;;;;;;10.37;5.13;;;;;;;;;;5097603;28;20217;-69
2021/08/31 09:47:34;;;;;;;6.40;4.83;;;;;;;;;;5097646;28;20208;-67
2021/08/31 09:50:03;;;;;;;8.20;4.53;;;;;;;;;;5104665;28;20239;-66
2021/08/31 09:52:33;;;;;;;5.97;4.43;;;;;;;;;;5099645;28;20201;-70
2021/08/31 09:55:01;;;;;;;7.30;5.20;;;;;;;;;;5101383;28;20237;-69
2021/08/31 09:57:32;;;;;;;6.23;5.63;;;;;;;;;;5105470;28;20209;-69
2021/08/31 10:00:00;;;;;;;5.97;5.17;;;;;;;;;;5112746;28;20229;-70
2021/08/31 10:02:28;;;;;;;5.73;4.43;;;;;;;;;;5111701;28;20236;-70
2021/08/31 10:04:57;;;;;;;6.03;4.57;;;;;;;;;;5107501;28;20252;-69
2021/08/31 10:07:25;;;;;;;6.40;4.53;;;;;;;;;;5104143;28;20280;-64
2021/08/31 10:09:55;;;;;;;5.80;4.70;;;;;;;;;;5105324;28;20207;-64
2021/08/31 10:12:25;;;;;;;6.10;4.93;;;;;;;;;;5113282;28;20205;-65
2021/08/31 10:14:54;;;;;;;7.63;5.00;;;;;;;;;;5107984;28;20213;-65
2021/08/31 10:17:25;;;;;;;6.80;5.03;;;;;;;;;;5102044;28;20215;-65
2021/08/31 10:19:54;;;;;;;5.63;4.90;;;;;;;;;;5106230;28;20193;-65
2021/08/31 10:22:22;;;;;;;7.00;4.23;;;;;;;;;;5107941;28;20240;-66
2021/08/31 10:24:50;;;;;;;5.93;4.80;;;;;;;;;;5113096;28;20304;-65
2021/08/31 10:27:33;;;;;;;5.63;5.10;;;;;;;;;;5102355;28;20207;-66
2021/08/31 10:30:20;;;;;;;6.07;4.30;;;;;;;;;;5100443;28;20234;-66
2021/08/31 10:32:49;;;;;;;4.67;4.13;;;;;;;;;;5098342;28;20223;-65
2021/08/31 10:35:49;;;;;;;5.27;4.30;;;;;;;;;;5105184;28;20644;-66
2021/08/31 10:38:17;;;;;;;4.67;4.00;;;;;;;;;;5106284;28;20203;-65
2021/08/31 10:40:46;;;;;;;5.50;3.87;;;;;;;;;;5102995;28;20218;-66
2021/08/31 10:43:17;;;;;;;6.10;4.17;;;;;;;;;;5110035;28;20211;-66
2021/08/31 10:45:45;;;;;;;7.77;4.07;;;;;;;;;;5117730;28;20593;-66
2021/08/31 10:48:32;;;;;;;5.63;4.27;;;;;;;;;;5113978;28;20201;-65
2021/08/31 10:51:01;;;;;;;7.97;4.33;;;;;;;;;;5106645;28;20294;-65
2021/08/31 10:53:39;;;;;;;5.60;4.40;;;;;;;;;;5112395;28;20270;-64
2021/08/31 10:56:26;;;;;;;7.77;3.73;;;;;;;;;;5117823;28;20295;-64
2021/08/31 10:58:56;;;;;;;5.40;4.00;;;;;;;;;;5096316;28;20203;-65
2021/08/31 11:01:25;;;;;;;7.90;5.77;;;;;;;;;;5111545;28;20317;-64
2021/08/31 11:03:56;;;;;;;6.03;4.50;;;;;;;;;;5114072;28;20574;-64
2021/08/31 11:06:27;;;;;;;6.97;4.57;;;;;;;;;;5117765;28;20204;-69
2021/08/31 11:09:25;;;;;;;5.43;4.80;;;;;;;;;;5107428;28;20234;-66
2021/08/31 11:12:01;;;;;;;5.40;4.53;;;;;;;;;;5053597;28;20813;-67
2021/08/31 11:14:41;;;;;;;7.10;4.40;;;;;;;;;;5087080;28;20225;-66
2021/08/31 11:17:09;;;;;;;4.57;4.17;;;;;;;;;;5096566;28;20204;-67
2021/08/31 11:19:37;;;;;;;6.23;4.63;;;;;;;;;;5096466;28;20252;-68
2021/08/31 11:22:05;;;;;;;4.23;3.70;;;;;;;;;;5101481;28;20223;-67
2021/08/31 11:24:32;;;;;;;5.63;4.60;;;;;;;;;;5101921;28;20650;-67
2021/08/31 11:27:02;;;;;;;5.67;3.17;;;;;;;;;;5102913;28;20537;-67
2021/08/31 11:29:30;;;;;;;4.37;3.23;;;;;;;;;;5096521;28;20202;-67
2021/08/31 11:32:04;;;;;;;5.53;4.10;;;;;;;;;;5100301;28;20206;-67
2021/08/31 11:34:33;;;;;;;3.93;3.13;;;;;;;;;;5115413;28;20224;-67
2021/08/31 11:37:03;;;;;;;3.63;3.03;;;;;;;;;;5117004;28;20204;-67
2021/08/31 11:39:31;;;;;;;4.07;3.37;;;;;;;;;;5118557;28;20287;-67
2021/08/31 11:42:08;;;;;;;3.43;3.13;;;;;;;;;;5120517;27;20699;-67
2021/08/31 11:44:36;;;;;;;3.60;2.97;;;;;;;;;;5113643;28;20304;-67
2021/08/31 11:47:06;;;;;;;5.00;3.10;;;;;;;;;;5102643;28;20198;-66
2021/08/31 11:49:34;;;;;;;3.60;3.30;;;;;;;;;;5105402;28;20304;-66
2021/08/31 11:52:06;;;;;;;3.57;3.10;;;;;;;;;;5106210;28;20252;-66
2021/08/31 11:54:35;;;;;;;3.77;3.10;;;;;;;;;;5103003;28;20672;-68
2021/08/31 11:57:04;;;;;;;2.67;2.47;;;;;;;;;;5100387;28;20292;-68
2021/08/31 11:59:36;;;;;;;3.30;3.00;;;;;;;;;;5108095;28;20228;-68
2021/08/31 12:02:13;;;;;;;5.33;3.10;;;;;;;;;;5118550;28;20300;-67
2021/08/31 12:04:41;;;;;;;3.83;3.27;;;;;;;;;;5114460;28;20229;-68
2021/08/31 12:07:09;;;;;;;3.33;3.03;;;;;;;;;;5108040;28;20209;-68
2021/08/31 12:09:37;;;;;;;6.37;3.17;;;;;;;;;;5100029;28;20265;-65
2021/08/31 12:12:06;;;;;;;3.97;2.80;;;;;;;;;;5099345;28;20296;-66
2021/08/31 12:14:34;;;;;;;4.20;3.30;;;;;;;;;;5119696;28;20316;-67
2021/08/31 12:17:02;;;;;;;4.07;3.50;;;;;;;;;;5103888;28;20241;-66
2021/08/31 12:19:32;;;;;;;3.87;2.80;;;;;;;;;;5103147;28;20716;-67
2021/08/31 12:22:11;;;;;;;5.27;3.00;;;;;;;;;;5119927;28;20228;-66
2021/08/31 12:24:39;;;;;;;3.67;3.10;;;;;;;;;;5116636;28;20316;-68
2021/08/31 12:27:09;;;;;;;5.77;2.60;;;;;;;;;;5099542;28;20642;-67
2021/08/31 12:29:47;;;;;;;4.20;2.80;;;;;;;;;;5100099;28;20640;-67
2021/08/31 12:32:21;;;;;;;4.90;3.07;;;;;;;;;;5099740;28;20194;-67
2021/08/31 12:34:51;;;;;;;3.80;2.77;;;;;;;;;;5114813;28;20221;-67
2021/08/31 12:37:27;;;;;;;3.93;3.53;;;;;;;;;;5119070;28;20217;-67
2021/08/31 12:40:15;;;;;;;5.93;3.10;;;;;;;;;;5119749;28;20690;-67
2021/08/31 12:42:43;;;;;;;4.13;3.07;;;;;;;;;;5107903;27;20581;-67
2021/08/31 12:45:11;;;;;;;3.33;3.03;;;;;;;;;;5119922;28;20227;-66
2021/08/31 12:47:54;;;;;;;5.77;2.73;;;;;;;;;;5116799;28;20193;-68
2021/08/31 12:50:23;;;;;;;3.17;2.87;;;;;;;;;;5118970;28;20232;-65
2021/08/31 12:53:02;;;;;;;5.17;3.10;;;;;;;;;;5098796;28;20228;-65
2021/08/31 12:55:31;;;;;;;4.93;2.57;;;;;;;;;;5101335;28;20222;-65
2021/08/31 12:58:14;;;;;;;3.20;2.90;;;;;;;;;;5119475;28;20221;-66
2021/08/31 13:00:42;;;;;;;3.37;2.93;;;;;;;;;;5106082;28;20639;-65
2021/08/31 13:03:25;;;;;;;2.97;2.67;;;;;;;;;;5111372;28;20219;-67
2021/08/31 13:05:55;;;;;;;4.07;3.77;;;;;;;;;;5114387;28;20208;-67
2021/08/31 13:08:23;;;;;;;5.07;3.10;;;;;;;;;;5099013;28;20577;-67
2021/08/31 13:10:51;;;;;;;3.40;3.10;;;;;;;;;;5099242;28;20211;-67
2021/08/31 13:13:26;;;;;;;6.10;3.50;;;;;;;;;;5107915;28;20645;-67
2021/08/31 13:15:54;;;;;;;3.70;3.00;;;;;;;;;;5117954;28;20546;-66
2021/08/31 13:18:22;;;;;;;3.93;2.93;;;;;;;;;;5099344;28;20609;-65
2021/08/31 13:20:50;;;;;;;4.00;3.33;;;;;;;;;;5116518;28;20206;-67
2021/08/31 13:23:20;;;;;;;3.50;2.93;;;;;;;;;;5108581;28;20719;-65
2021/08/31 13:25:48;;;;;;;9.07;3.40;;;;;;;;;;5110722;28;20664;-66
2021/08/31 13:28:16;;;;;;;5.63;3.67;;;;;;;;;;5115192;28;20669;-65
2021/08/31 13:30:48;;;;;;;4.70;3.53;;;;;;;;;;5119123;28;20211;-66
2021/08/31 13:33:18;;;;;;;3.93;3.27;;;;;;;;;;5109247;28;20566;-64
2021/08/31 13:35:46;;;;;;;3.73;3.43;;;;;;;;;;5099711;28;20327;-65
2021/08/31 13:38:14;;;;;;;5.43;3.33;;;;;;;;;;5114288;28;20284;-65
2021/08/31 13:40:44;;;;;;;3.77;3.47;;;;;;;;;;5118800;28;20216;-65
2021/08/31 13:43:12;;;;;;;4.83;3.10;;;;;;;;;;5108302;28;20225;-65
2021/08/31 13:45:40;;;;;;;4.13;3.60;;;;;;;;;;5098204;28;20237;-66
2021/08/31 13:48:08;;;;;;;3.30;2.97;;;;;;;;;;5110025;28;20196;-65
2021/08/31 13:50:35;;;;;;;3.57;3.27;;;;;;;;;;5110582;28;20242;-67
2021/08/31 13:53:03;;;;;;;4.17;3.20;;;;;;;;;;5105117;28;20191;-66
2021/08/31 13:55:33;;;;;;;4.90;3.03;;;;;;;;;;5115922;28;20219;-67
2021/08/31 13:58:02;;;;;;;5.30;3.70;;;;;;;;;;5117717;28;20201;-65
2021/08/31 14:00:30;;;;;;;4.27;3.30;;;;;;;;;;5098969;28;20214;-66
2021/08/31 14:02:59;;;;;;;5.53;3.67;;;;;;;;;;5106621;28;20694;-65
2021/08/31 14:05:27;;;;;;;3.37;3.10;;;;;;;;;;5117641;28;20256;-67
2021/08/31 14:07:55;;;;;;;5.43;3.40;;;;;;;;;;5118312;28;20349;-68
2021/08/31 14:10:23;;;;;;;5.87;3.47;;;;;;;;;;5117069;28;20215;-67
2021/08/31 14:12:51;;;;;;;4.20;3.53;;;;;;;;;;5111647;28;20228;-68
2021/08/31 14:15:22;;;;;;;3.27;2.97;;;;;;;;;;5098002;28;20637;-68
2021/08/31 14:17:50;;;;;;;4.93;3.17;;;;;;;;;;5116303;28;20209;-69
2021/08/31 14:20:18;;;;;;;3.47;2.93;;;;;;;;;;5114204;28;20193;-66
2021/08/31 14:22:46;;;;;;;5.40;3.37;;;;;;;;;;5103698;28;20225;-66
2021/08/31 14:25:14;;;;;;;3.43;3.13;;;;;;;;;;5118022;28;20707;-66
2021/08/31 14:27:44;;;;;;;4.80;3.77;;;;;;;;;;5102048;28;20203;-65
2021/08/31 14:30:12;;;;;;;4.27;3.20;;;;;;;;;;5118405;28;20204;-65
2021/08/31 14:32:42;;;;;;;3.90;3.50;;;;;;;;;;5116272;28;20201;-65
2021/08/31 14:35:11;;;;;;;5.00;3.70;;;;;;;;;;5104551;28;20221;-65
2021/08/31 14:37:40;;;;;;;3.70;3.33;;;;;;;;;;5097736;28;20288;-67
2021/08/31 14:40:10;;;;;;;6.27;3.90;;;;;;;;;;5097862;28;20224;-67
2021/08/31 14:42:38;;;;;;;4.17;3.13;;;;;;;;;;5111348;28;20232;-66
2021/08/31 14:45:07;;;;;;;3.33;3.07;;;;;;;;;;5118354;28;20315;-66
2021/08/31 14:47:35;;;;;;;3.50;3.20;;;;;;;;;;5113181;28;20199;-67
2021/08/31 14:50:05;;;;;;;3.20;2.90;;;;;;;;;;5106911;28;20284;-67
2021/08/31 14:52:35;;;;;;;5.67;3.83;;;;;;;;;;5098972;28;20203;-66
2021/08/31 14:55:03;;;;;;;4.80;3.50;;;;;;;;;;5102354;28;20223;-66